Time;durP1;ratioP1;P1;durP2;ratioP2;P2;SDS_P1;SDS_P2;PMS_P1;PMS_P2;Temp;Humidity;BMP_temperature;BMP_pressure;BME280_temperature;BME280_humidity;BME280_pressure;Samples;Min_cycle;Max_cycle;Signal;HPM_P1;HPM_P2
2021/11/02 00:00:37;;;;;;;47.58;25.62;;;;;;;6.44;69.17;97756.31;2210295;81;20985;-65
2021/11/02 00:03:41;;;;;;;54.88;25.32;;;;;;;6.46;69.29;97751.83;2188769;81;21536;-65
2021/11/02 00:06:42;;;;;;;49.88;25.17;;;;;;;6.46;70.00;97746.63;2210518;81;20965;-65
2021/11/02 00:09:44;;;;;;;48.38;24.43;;;;;;;6.45;69.15;97742.37;2210624;81;20992;-65
2021/11/02 00:12:47;;;;;;;51.08;25.77;;;;;;;6.50;69.18;97732.48;2210286;81;21060;-65
2021/11/02 00:15:49;;;;;;;48.23;25.82;;;;;;;6.47;69.12;97731.38;2210538;81;21011;-65
2021/11/02 00:19:00;;;;;;;50.38;25.50;;;;;;;6.44;69.18;97733.31;2210366;81;21551;-65
2021/11/02 00:21:57;;;;;;;55.58;27.60;;;;;;;6.53;69.37;97732.77;2189020;81;20953;-65
2021/11/02 00:28:03;;;;;;;53.65;25.95;;;;;;;6.55;69.46;97721.77;2188888;81;20997;-65
2021/11/02 00:31:05;;;;;;;51.92;25.43;;;;;;;6.52;69.44;97722.82;2188740;81;21044;-65
2021/11/02 00:34:07;;;;;;;48.30;24.47;;;;;;;6.56;69.19;97727.36;2210289;81;21037;-65
2021/11/02 00:37:08;;;;;;;53.52;26.50;;;;;;;6.57;69.19;97723.83;2210739;81;21039;-65
2021/11/02 00:40:09;;;;;;;50.48;25.62;;;;;;;6.52;69.27;97728.03;2210394;81;21083;-65
2021/11/02 00:43:11;;;;;;;53.02;24.98;;;;;;;6.53;69.27;97728.38;2210608;81;21005;-65
2021/11/02 00:46:12;;;;;;;50.88;25.20;;;;;;;6.61;69.33;97728.37;2210454;81;21007;-65
2021/11/02 00:52:17;;;;;;;50.60;24.55;;;;;;;6.58;69.30;97728.12;2188725;81;21349;-65
2021/11/02 00:55:19;;;;;;;47.48;24.57;;;;;;;6.63;69.41;97720.01;2210245;81;21027;-65
2021/11/02 00:58:22;;;;;;;48.10;23.95;;;;;;;6.69;69.71;97719.14;2210456;81;20999;-65
2021/11/02 01:01:23;;;;;;;51.05;25.48;;;;;;;6.75;69.24;97719.22;2210353;81;20988;-65
2021/11/02 01:04:25;;;;;;;51.10;25.70;;;;;;;6.74;69.29;97707.97;2210223;81;20986;-65
2021/11/02 01:07:26;;;;;;;52.48;25.02;;;;;;;6.76;69.13;97713.91;2210092;81;21622;-65
2021/11/02 01:10:28;;;;;;;48.48;24.10;;;;;;;6.72;69.38;97707.69;2210149;81;20949;-65
2021/11/02 01:13:29;;;;;;;48.80;24.40;;;;;;;6.65;69.28;97699.89;2210218;81;21536;-65
2021/11/02 01:16:31;;;;;;;48.40;24.35;;;;;;;6.67;69.46;97701.47;2210308;81;20993;-65
2021/11/02 01:19:32;;;;;;;47.45;23.00;;;;;;;6.71;69.32;97701.65;2210178;81;21068;-65
2021/11/02 01:22:34;;;;;;;49.95;23.98;;;;;;;6.67;69.33;97700.17;2210335;81;20949;-65
2021/11/02 01:25:35;;;;;;;43.40;22.75;;;;;;;6.68;69.38;97694.03;2210172;81;21032;-65
2021/11/02 01:28:36;;;;;;;44.65;23.10;;;;;;;6.73;69.29;97680.23;2210179;81;21063;-65
2021/11/02 01:31:38;;;;;;;47.85;24.02;;;;;;;6.75;69.22;97674.47;2210473;81;21049;-65
2021/11/02 01:34:40;;;;;;;45.65;23.00;;;;;;;6.73;69.15;97673.71;2210147;81;21659;-65
2021/11/02 01:37:41;;;;;;;45.15;22.58;;;;;;;6.68;69.33;97669.72;2210181;81;21071;-65
2021/11/02 01:40:43;;;;;;;45.60;23.07;;;;;;;6.67;69.13;97675.89;2210221;81;21551;-65
2021/11/02 01:43:45;;;;;;;48.33;23.87;;;;;;;6.65;69.05;97679.04;2210370;81;21013;-65
2021/11/02 01:46:47;;;;;;;44.30;22.82;;;;;;;6.66;69.27;97674.21;2210172;81;21551;-65
2021/11/02 01:49:49;;;;;;;;;;;;;;;6.70;69.18;97674.39;2212836;81;21080;-65
2021/11/02 01:52:50;;;;;;;46.42;22.27;;;;;;;6.60;69.45;97666.31;2210345;80;20108;-65
2021/11/02 01:55:52;;;;;;;46.20;22.37;;;;;;;6.51;69.60;97665.61;2210137;81;21036;-65
2021/11/02 01:58:54;;;;;;;46.63;23.02;;;;;;;6.47;69.81;97663.64;2210248;81;21003;-65
2021/11/02 02:01:56;;;;;;;45.28;22.98;;;;;;;6.51;69.93;97655.19;2210050;81;21641;-65
2021/11/02 02:04:58;;;;;;;44.63;22.30;;;;;;;6.55;70.11;97643.61;2210094;81;21065;-65
2021/11/02 02:08:01;;;;;;;42.53;21.25;;;;;;;6.56;70.34;97637.00;2210078;81;21069;-65
2021/11/02 02:11:02;;;;;;;48.60;22.87;;;;;;;6.57;69.83;97650.40;2188767;81;21515;-65
2021/11/02 02:14:04;;;;;;;49.63;24.27;;;;;;;6.74;69.71;97662.84;2210548;81;20937;-65
2021/11/02 02:17:05;;;;;;;45.33;22.73;;;;;;;6.83;69.46;97655.72;2210138;81;21200;-65
2021/11/02 02:20:07;;;;;;;43.60;21.80;;;;;;;6.83;69.42;97655.72;2210422;81;20969;-65
2021/11/02 02:23:08;;;;;;;46.37;22.27;;;;;;;6.84;69.41;97656.55;2210190;81;20984;-65
2021/11/02 02:26:10;;;;;;;45.85;22.07;;;;;;;6.80;69.56;97652.02;2210138;81;21020;-65
2021/11/02 02:29:11;;;;;;;45.33;22.95;;;;;;;6.78;69.55;97643.92;2209958;80;21102;-65
2021/11/02 02:35:18;;;;;;;43.48;22.93;;;;;;;6.91;69.49;97653.47;2188813;81;21394;-65
2021/11/02 02:38:19;;;;;;;44.85;22.60;;;;;;;6.98;69.38;97647.84;2188788;81;21028;-65
2021/11/02 02:41:20;;;;;;;44.75;21.62;;;;;;;6.89;69.74;97638.85;2210778;81;20992;-65
2021/11/02 02:44:22;;;;;;;45.50;23.35;;;;;;;6.81;69.53;97627.62;2210623;81;21040;-65
2021/11/02 02:47:23;;;;;;;42.78;22.30;;;;;;;6.74;70.02;97621.14;2210296;81;21039;-65
2021/11/02 02:50:25;;;;;;;43.68;21.97;;;;;;;6.78;69.64;97613.95;2210367;81;21450;-65
2021/11/02 02:53:26;;;;;;;44.63;22.42;;;;;;;6.78;69.81;97615.25;2210635;81;20980;-65
2021/11/02 02:56:29;;;;;;;42.90;22.97;;;;;;;6.70;69.98;97610.06;2210511;81;21530;-65
2021/11/02 02:59:30;;;;;;;47.90;23.67;;;;;;;6.62;69.93;97612.80;2210561;81;21680;-65
2021/11/02 03:02:32;;;;;;;47.30;23.52;;;;;;;6.62;69.91;97617.53;2210463;81;21491;-65
2021/11/02 03:05:33;;;;;;;46.37;23.10;;;;;;;6.65;69.96;97621.72;2210324;81;20957;-65
2021/11/02 03:08:35;;;;;;;48.20;24.00;;;;;;;6.70;69.83;97629.61;2210092;81;21496;-65
2021/11/02 03:11:37;;;;;;;47.20;24.52;;;;;;;6.71;69.77;97623.92;2210624;81;20984;-65
2021/11/02 03:14:49;;;;;;;46.83;23.40;;;;;;;6.64;69.83;97613.08;2210331;81;21436;-65
2021/11/02 03:17:45;;;;;;;46.45;23.73;;;;;;;6.60;69.81;97607.69;2188907;81;21547;-65
2021/11/02 03:48:21;;;;;;;46.50;23.20;;;;;;;6.72;69.86;97608.66;2220953;80;21546;-65
2021/11/02 03:57:33;;;;;;;46.10;24.07;;;;;;;7.04;69.62;97612.23;2192952;80;20981;-65
2021/11/02 04:25:13;;;;;;;45.38;22.93;;;;;;;6.91;69.71;97588.30;2192915;80;20992;-65
2021/11/02 05:47:29;;;;;;;46.05;23.05;;;;;;;7.10;69.78;97546.66;2163104;82;21607;-66
2021/11/02 05:50:50;;;;;;;44.40;24.00;;;;;;;7.02;69.83;97548.46;2163066;82;20992;-65
2021/11/02 06:29:59;;;;;;;43.48;22.25;;;;;;;7.21;69.74;97546.78;2165695;80;20974;-65
2021/11/02 06:33:05;;;;;;;42.50;23.02;;;;;;;7.24;69.80;97553.53;2210429;81;21367;-65
2021/11/02 06:54:38;;;;;;;45.73;24.23;;;;;;;7.72;69.02;97552.91;2188717;81;20993;-65
2021/11/02 07:00:46;;;;;;;44.85;22.17;;;;;;;7.79;68.78;97548.44;2188656;81;20989;-65
2021/11/02 07:15:57;;;;;;;44.60;21.97;;;;;;;7.77;68.90;97550.79;2188429;81;21052;-65
2021/11/02 07:18:55;;;;;;;51.88;26.30;;;;;;;7.80;68.56;97548.81;2188833;81;21530;-65
2021/11/02 07:28:13;;;;;;;48.68;22.20;;;;;;;7.53;68.89;97547.65;2210285;81;21554;-65
2021/11/02 08:47:29;;;;;;;54.25;27.93;;;;;;;8.28;71.56;97560.28;2173840;81;21544;-65
2021/11/02 08:50:33;;;;;;;52.35;27.85;;;;;;;8.18;71.79;97561.89;2173609;81;21052;-65
2021/11/02 08:53:31;;;;;;;52.00;26.82;;;;;;;8.25;72.08;97549.58;2173779;81;21045;-65
2021/11/02 08:56:32;;;;;;;52.17;27.67;;;;;;;8.20;72.13;97545.63;2201769;81;20996;-65
2021/11/02 08:59:34;;;;;;;49.93;26.90;;;;;;;8.13;72.50;97551.30;2201695;81;20993;-65
2021/11/02 09:02:35;;;;;;;50.90;27.17;;;;;;;8.05;72.50;97559.31;2201819;81;20949;-65
2021/11/02 09:05:37;;;;;;;48.90;27.13;;;;;;;8.12;73.00;97559.24;2201641;81;20977;-65
2021/11/02 09:08:39;;;;;;;47.03;25.80;;;;;;;8.21;73.30;97565.09;2201187;81;21536;-65
2021/11/02 09:11:41;;;;;;;47.00;26.17;;;;;;;8.21;72.90;97563.80;2201661;81;21037;-65
2021/11/02 09:14:43;;;;;;;50.30;26.80;;;;;;;8.23;72.91;97565.84;2201506;81;21829;-65
2021/11/02 09:17:44;;;;;;;48.80;27.03;;;;;;;8.25;73.41;97565.73;2201292;81;21053;-65
2021/11/02 09:20:46;;;;;;;54.05;28.87;;;;;;;8.28;73.11;97567.64;2201465;81;21016;-65
2021/11/02 09:23:47;;;;;;;48.95;26.87;;;;;;;8.35;73.24;97564.13;2201400;81;20973;-65
2021/11/02 09:26:49;;;;;;;57.62;31.50;;;;;;;8.47;73.43;97561.94;2201358;81;21008;-65
2021/11/02 09:29:50;;;;;;;70.92;39.67;;;;;;;8.65;73.17;97564.19;2201394;81;21798;-65
2021/11/02 09:32:52;;;;;;;55.78;32.08;;;;;;;8.79;72.93;97567.92;2207852;80;21000;-65
2021/11/02 09:35:54;;;;;;;51.85;29.57;;;;;;;8.94;72.87;97565.12;2210341;81;21543;-64
2021/11/02 09:38:55;;;;;;;54.27;30.92;;;;;;;9.00;72.89;97561.55;2210182;81;21028;-65
2021/11/02 09:41:57;;;;;;;50.75;26.77;;;;;;;9.03;72.86;97565.73;2210205;81;21044;-65
2021/11/02 09:45:00;;;;;;;49.98;26.57;;;;;;;8.97;72.75;97568.81;2210423;81;21068;-65
2021/11/02 09:48:01;;;;;;;59.90;31.93;;;;;;;8.98;73.03;97569.18;2188718;81;21056;-65
2021/11/02 09:51:03;;;;;;;52.93;29.60;;;;;;;8.99;73.16;97569.52;2210344;81;21025;-64
2021/11/02 09:54:06;;;;;;;56.77;30.63;;;;;;;9.05;72.91;97559.92;2210575;81;21069;-65
2021/11/02 09:57:08;;;;;;;59.18;32.88;;;;;;;8.99;72.85;97561.22;2188544;81;20977;-65
2021/11/02 10:00:11;;;;;;;68.35;34.70;;;;;;;8.97;73.01;97560.48;2210189;81;21578;-65
2021/11/02 10:03:13;;;;;;;68.22;35.30;;;;;;;8.96;73.30;97561.42;2210321;81;21099;-65
2021/11/02 10:06:15;;;;;;;61.50;33.40;;;;;;;8.99;73.36;97561.67;2210369;81;21491;-65
2021/11/02 10:09:18;;;;;;;59.53;31.25;;;;;;;9.05;73.44;97563.00;2210171;81;21060;-65
2021/11/02 10:12:20;;;;;;;57.58;30.23;;;;;;;9.06;73.54;97558.95;2210324;81;21084;-65
2021/11/02 10:15:22;;;;;;;60.55;32.05;;;;;;;8.94;73.06;97562.02;2210395;81;21055;-65
2021/11/02 10:18:24;;;;;;;51.15;29.25;;;;;;;8.95;73.35;97562.39;2209932;81;21116;-64
2021/11/02 10:21:25;;;;;;;52.27;28.40;;;;;;;8.95;73.43;97563.70;2210445;81;21603;-65
2021/11/02 10:24:27;;;;;;;52.83;29.47;;;;;;;8.93;73.28;97558.22;2210454;81;21072;-65
2021/11/02 10:27:30;;;;;;;53.60;28.73;;;;;;;8.80;73.64;97553.88;2210377;81;21583;-65
2021/11/02 10:30:33;;;;;;;49.58;27.52;;;;;;;8.78;73.94;97551.05;2210294;81;21518;-65
2021/11/02 10:33:34;;;;;;;52.40;28.23;;;;;;;8.67;73.86;97558.36;2210058;81;21025;-65
2021/11/02 10:36:36;;;;;;;51.40;28.12;;;;;;;8.65;74.13;97553.25;2210259;81;21048;-65
2021/11/02 10:39:38;;;;;;;50.60;27.20;;;;;;;8.61;74.56;97553.59;2210437;81;21036;-65
2021/11/02 10:42:42;;;;;;;52.98;29.35;;;;;;;8.62;74.42;97552.17;2210179;81;21047;-64
2021/11/02 10:45:48;;;;;;;50.55;27.45;;;;;;;8.62;74.53;97549.55;2210163;81;21020;-65
2021/11/02 10:48:47;;;;;;;51.28;27.52;;;;;;;8.63;74.50;97549.07;2188722;81;20969;-65
2021/11/02 10:51:48;;;;;;;48.63;26.75;;;;;;;8.61;74.67;97553.59;2210574;81;21544;-65
2021/11/02 10:54:50;;;;;;;50.23;28.07;;;;;;;8.64;74.71;97546.34;2210290;81;21041;-65
2021/11/02 10:57:52;;;;;;;55.80;28.20;;;;;;;8.72;74.94;97540.56;2210541;81;20996;-65
2021/11/02 11:00:54;;;;;;;51.97;28.33;;;;;;;8.75;74.80;97543.41;2210759;81;20984;-65
2021/11/02 11:03:55;;;;;;;54.10;28.77;;;;;;;8.71;74.89;97538.89;2210636;81;20945;-64
2021/11/02 11:06:58;;;;;;;53.13;28.27;;;;;;;8.71;75.24;97541.51;2210309;81;21514;-65
2021/11/02 11:10:00;;;;;;;50.33;27.82;;;;;;;8.65;74.96;97542.79;2210359;81;21523;-64
2021/11/02 11:13:01;;;;;;;49.50;26.70;;;;;;;8.68;75.11;97543.05;2210344;81;21036;-64
2021/11/02 11:16:03;;;;;;;51.85;28.05;;;;;;;8.73;75.44;97540.91;2210595;81;20982;-64
2021/11/02 11:19:04;;;;;;;51.15;27.22;;;;;;;8.76;75.26;97541.16;2210096;81;21063;-64
2021/11/02 11:22:06;;;;;;;52.58;28.62;;;;;;;8.64;75.27;97537.19;2210343;81;20961;-65
2021/11/02 11:25:07;;;;;;;50.58;27.67;;;;;;;8.60;75.51;97534.44;2210428;81;20969;-65
2021/11/02 11:28:09;;;;;;;56.77;29.55;;;;;;;8.63;75.46;97534.69;2210260;81;21039;-64
2021/11/02 11:31:10;;;;;;;54.80;30.77;;;;;;;8.65;75.58;97529.72;2210243;80;21487;-65
2021/11/02 11:34:11;;;;;;;52.53;28.73;;;;;;;8.59;75.71;97534.10;2210337;81;21023;-64
2021/11/02 11:37:13;;;;;;;50.17;28.62;;;;;;;8.48;75.69;97537.48;2210290;81;20980;-63
2021/11/02 11:40:15;;;;;;;57.90;30.60;;;;;;;8.47;76.26;97537.12;2210684;81;21036;-65
2021/11/02 11:43:16;;;;;;;49.33;28.25;;;;;;;8.50;75.99;97542.59;2210462;81;20984;-64
2021/11/02 11:46:18;;;;;;;53.00;28.25;;;;;;;8.49;75.85;97531.77;2210443;81;21013;-64
2021/11/02 11:49:19;;;;;;;53.05;28.50;;;;;;;8.46;76.37;97527.62;2210319;81;20996;-64
2021/11/02 11:52:20;;;;;;;53.30;27.52;;;;;;;8.41;76.24;97529.70;2210323;81;21615;-64
2021/11/02 11:55:22;;;;;;;48.58;27.90;;;;;;;8.29;77.01;97528.82;2210318;81;21003;-64
2021/11/02 11:58:24;;;;;;;53.83;29.63;;;;;;;8.25;76.75;97529.16;2210532;81;21514;-64
2021/11/02 12:01:25;;;;;;;54.98;29.87;;;;;;;8.28;76.79;97526.32;2210462;81;21001;-64
2021/11/02 12:04:27;;;;;;;54.85;29.42;;;;;;;8.30;76.97;97528.34;2210553;81;21570;-64
2021/11/02 12:07:28;;;;;;;56.53;30.45;;;;;;;8.38;77.04;97524.70;2210212;81;21063;-64
2021/11/02 12:10:30;;;;;;;54.00;29.67;;;;;;;8.38;76.86;97527.80;2210321;81;20992;-64
2021/11/02 12:13:31;;;;;;;58.95;31.82;;;;;;;8.36;77.01;97529.67;2210514;81;20984;-64
2021/11/02 12:16:33;;;;;;;55.20;29.57;;;;;;;8.33;77.17;97526.80;2210232;81;20953;-64
2021/11/02 12:19:35;;;;;;;51.10;27.48;;;;;;;8.29;77.11;97531.91;2210507;81;21079;-64
2021/11/02 12:22:38;;;;;;;51.33;27.87;;;;;;;8.27;78.01;97526.77;2210257;81;21032;-64
2021/11/02 12:25:41;;;;;;;49.85;28.17;;;;;;;8.22;77.44;97523.67;2210338;81;21503;-64
2021/11/02 12:28:43;;;;;;;49.80;27.37;;;;;;;8.23;77.54;97516.66;2210361;81;20981;-64
2021/11/02 12:31:46;;;;;;;51.90;28.20;;;;;;;8.29;77.89;97520.98;2211913;80;21012;-64
2021/11/02 12:34:48;;;;;;;;;;;;;;;8.27;77.64;97522.03;2223182;80;20980;-64
2021/11/02 12:37:50;;;;;;;49.88;27.48;;;;;;;8.29;77.87;97524.90;2220647;80;20152;-64
2021/11/02 12:40:52;;;;;;;54.00;28.87;;;;;;;8.29;77.66;97521.47;2220627;80;21053;-64
2021/11/02 12:43:53;;;;;;;48.25;26.85;;;;;;;8.24;77.86;97519.16;2220541;80;21100;-64
2021/11/02 12:46:55;;;;;;;50.05;26.68;;;;;;;8.18;77.99;97518.31;2220738;80;21047;-64
2021/11/02 12:49:56;;;;;;;46.60;26.00;;;;;;;8.17;78.34;97515.33;2220574;80;21028;-64
2021/11/02 12:52:58;;;;;;;50.12;27.70;;;;;;;8.14;78.35;97516.86;2220813;80;21658;-64
2021/11/02 12:56:00;;;;;;;50.28;26.77;;;;;;;8.09;79.08;97514.58;2220642;80;21028;-64
2021/11/02 12:59:02;;;;;;;51.33;27.75;;;;;;;8.04;79.20;97514.55;2220642;80;21516;-64
2021/11/02 13:02:05;;;;;;;49.67;27.62;;;;;;;8.01;79.28;97519.51;2220650;80;21040;-64
2021/11/02 13:05:07;;;;;;;49.65;26.90;;;;;;;8.00;79.45;97528.28;2190421;80;21075;-64
2021/11/02 13:08:09;;;;;;;52.78;27.50;;;;;;;7.99;79.45;97537.08;2220927;80;21072;-64
2021/11/02 13:11:11;;;;;;;51.15;27.87;;;;;;;8.03;78.92;97532.00;2220598;80;21546;-64
2021/11/02 13:14:14;;;;;;;49.13;27.48;;;;;;;8.11;78.94;97531.45;2221032;80;21075;-64
2021/11/02 13:17:17;;;;;;;52.25;27.42;;;;;;;8.10;79.05;97533.23;2220672;80;21055;-64
2021/11/02 13:20:18;;;;;;;48.05;26.27;;;;;;;8.12;79.12;97529.20;2220710;80;21047;-64
2021/11/02 13:23:20;;;;;;;52.90;27.50;;;;;;;8.16;78.95;97530.66;2220614;80;21011;-64
2021/11/02 13:26:21;;;;;;;51.18;27.55;;;;;;;8.20;79.19;97529.47;2220686;80;21011;-65
2021/11/02 13:29:23;;;;;;;46.68;26.60;;;;;;;8.14;79.29;97534.66;2220859;80;20978;-64
2021/11/02 13:32:24;;;;;;;48.80;25.23;;;;;;;8.07;79.09;97532.61;2220739;80;21590;-64
2021/11/02 13:35:26;;;;;;;47.78;25.50;;;;;;;8.16;79.16;97529.35;2220978;80;21024;-64
2021/11/02 13:38:27;;;;;;;47.17;24.98;;;;;;;8.20;79.19;97529.95;2220937;80;21507;-64
2021/11/02 13:41:29;;;;;;;46.35;24.82;;;;;;;8.15;79.14;97527.19;2220975;80;21039;-64
2021/11/02 13:44:31;;;;;;;46.77;24.60;;;;;;;8.12;79.38;97523.98;2221104;80;21598;-64
2021/11/02 13:47:33;;;;;;;;;;;;;;;8.07;79.57;97529.51;2223529;80;20987;-64
2021/11/02 13:50:35;;;;;;;46.90;25.12;;;;;;;8.02;79.72;97522.98;2221184;80;20127;-64
2021/11/02 13:53:36;;;;;;;49.27;26.23;;;;;;;7.94;79.88;97519.13;2221162;80;20988;-65
2021/11/02 13:56:38;;;;;;;52.17;26.57;;;;;;;7.99;80.02;97521.41;2221051;80;20989;-64
2021/11/02 13:59:39;;;;;;;46.33;25.37;;;;;;;7.97;79.80;97519.36;2220865;80;21087;-64
2021/11/02 14:02:41;;;;;;;46.18;24.90;;;;;;;7.99;80.15;97525.33;2220600;80;21670;-64
2021/11/02 14:05:44;;;;;;;48.05;25.43;;;;;;;8.02;80.12;97513.84;2220677;80;21073;-64
2021/11/02 14:08:46;;;;;;;49.63;26.12;;;;;;;8.01;79.96;97526.52;2221052;80;21023;-64
2021/11/02 14:11:47;;;;;;;49.15;25.77;;;;;;;8.06;79.95;97526.56;2220811;80;21031;-64
2021/11/02 14:14:48;;;;;;;49.15;26.10;;;;;;;8.07;79.81;97516.45;2220810;80;21530;-64
2021/11/02 14:17:50;;;;;;;45.40;23.35;;;;;;;8.11;80.11;97517.08;2221046;80;20983;-64
2021/11/02 14:20:51;;;;;;;47.90;24.77;;;;;;;8.07;80.09;97519.55;2220808;80;21558;-64
2021/11/02 14:23:53;;;;;;;49.60;24.57;;;;;;;8.05;80.32;97521.45;2221061;80;20976;-64
2021/11/02 14:26:54;;;;;;;47.40;25.12;;;;;;;8.06;80.59;97517.87;2220662;80;21813;-64
2021/11/02 14:29:56;;;;;;;48.87;25.48;;;;;;;8.05;80.17;97517.05;2220943;80;21020;-64
2021/11/02 14:32:58;;;;;;;47.83;25.25;;;;;;;8.02;81.03;97513.35;2220853;80;21088;-64
2021/11/02 14:35:59;;;;;;;48.08;25.40;;;;;;;8.00;80.37;97508.70;2220857;80;21024;-64
2021/11/02 14:39:00;;;;;;;48.00;24.82;;;;;;;8.03;80.63;97509.81;2220663;80;21094;-64
2021/11/02 14:42:02;;;;;;;48.15;25.95;;;;;;;7.96;80.73;97513.31;2220657;80;20973;-64
2021/11/02 14:45:03;;;;;;;47.43;25.23;;;;;;;7.87;80.79;97518.35;2220661;80;21028;-64
2021/11/02 14:48:05;;;;;;;49.65;26.25;;;;;;;7.88;81.08;97510.89;2220587;80;20968;-64
2021/11/02 14:51:06;;;;;;;47.93;25.30;;;;;;;7.85;81.49;97512.42;2220557;80;20996;-64
2021/11/02 14:54:08;;;;;;;51.92;26.57;;;;;;;7.84;81.21;97510.27;2220862;80;21095;-65
2021/11/02 14:57:10;;;;;;;46.83;25.35;;;;;;;7.85;81.55;97509.81;2220546;80;21136;-64
2021/11/02 15:00:11;;;;;;;48.85;24.95;;;;;;;7.79;81.85;97502.77;2221001;80;21063;-64
2021/11/02 15:03:12;;;;;;;47.05;25.65;;;;;;;7.75;81.78;97505.22;2220666;80;21068;-64
2021/11/02 15:06:14;;;;;;;51.98;25.17;;;;;;;7.72;81.81;97510.66;2220553;80;21562;-64
2021/11/02 15:09:16;;;;;;;47.23;24.27;;;;;;;7.74;81.69;97507.94;2220914;80;21055;-64
2021/11/02 15:12:17;;;;;;;48.30;25.32;;;;;;;7.76;81.81;97508.69;2220760;80;21071;-64
2021/11/02 15:15:19;;;;;;;48.13;24.47;;;;;;;7.80;81.63;97509.66;2220895;80;21024;-64
2021/11/02 15:18:20;;;;;;;47.73;24.23;;;;;;;7.77;81.79;97507.27;2220574;80;21617;-64
2021/11/02 15:21:22;;;;;;;47.08;24.43;;;;;;;7.75;82.29;97510.92;2220528;80;21084;-64
2021/11/02 15:24:23;;;;;;;51.05;26.10;;;;;;;7.76;82.13;97516.52;2220866;80;21024;-64
2021/11/02 15:27:25;;;;;;;49.50;25.35;;;;;;;7.74;81.89;97514.47;2220682;80;20988;-64
2021/11/02 15:30:26;;;;;;;47.58;23.92;;;;;;;7.86;81.80;97519.28;2220605;80;20995;-64
2021/11/02 15:33:30;;;;;;;47.60;25.57;;;;;;;7.84;81.55;97520.70;2220734;80;21060;-64
2021/11/02 15:36:31;;;;;;;47.25;26.55;;;;;;;7.84;81.79;97521.19;2190358;80;20996;-65
2021/11/02 15:39:33;;;;;;;50.73;26.93;;;;;;;7.89;81.72;97522.53;2220708;80;21012;-64
2021/11/02 15:42:34;;;;;;;49.35;26.87;;;;;;;8.00;81.65;97524.84;2220851;80;20972;-64
2021/11/02 15:45:36;;;;;;;50.88;27.40;;;;;;;8.07;81.45;97523.47;2220968;80;21044;-64
2021/11/02 15:48:37;;;;;;;50.70;27.50;;;;;;;8.08;81.33;97522.53;2220763;80;21460;-64
2021/11/02 15:51:39;;;;;;;51.80;27.30;;;;;;;8.08;81.29;97532.49;2220684;80;21047;-64
2021/11/02 15:54:41;;;;;;;79.70;43.75;;;;;;;8.17;81.38;97536.70;2220989;80;21099;-64
2021/11/02 15:57:42;;;;;;;82.93;47.43;;;;;;;7.90;83.33;97556.84;2220929;80;21055;-64
2021/11/02 16:00:44;;;;;;;70.62;40.50;;;;;;;7.67;83.46;97551.92;2220573;80;21048;-65
2021/11/02 16:03:45;;;;;;;64.37;35.78;;;;;;;7.61;82.86;97549.27;2220689;80;20995;-65
2021/11/02 16:06:46;;;;;;;65.65;37.33;;;;;;;7.72;82.56;97547.20;2220533;80;21083;-64
2021/11/02 16:09:48;;;;;;;61.68;34.55;;;;;;;7.75;82.57;97556.13;2220568;80;21492;-64
2021/11/02 16:12:49;;;;;;;63.28;37.67;;;;;;;7.77;82.66;97562.09;2220775;80;21071;-65
2021/11/02 16:15:51;;;;;;;57.45;31.60;;;;;;;7.77;82.50;97558.62;2220337;80;21629;-64
2021/11/02 16:18:52;;;;;;;54.45;30.10;;;;;;;7.77;82.47;97551.64;2220634;80;20992;-64
2021/11/02 16:21:54;;;;;;;56.30;30.82;;;;;;;7.86;82.65;97555.84;2220551;80;21048;-64
2021/11/02 16:24:55;;;;;;;58.23;31.10;;;;;;;7.97;82.38;97554.16;2220694;80;20975;-64
2021/11/02 16:27:56;;;;;;;56.25;29.55;;;;;;;8.05;82.27;97550.17;2220522;80;21103;-64
2021/11/02 16:30:58;;;;;;;55.58;29.23;;;;;;;8.06;82.00;97548.75;2220932;80;21519;-64
2021/11/02 16:34:00;;;;;;;47.55;24.67;;;;;;;8.07;82.14;97543.05;2215282;80;21072;-64
2021/11/02 16:37:02;;;;;;;46.35;23.62;;;;;;;8.12;81.91;97541.78;2210023;81;21084;-64
2021/11/02 16:40:04;;;;;;;43.25;22.98;;;;;;;8.15;81.87;97536.81;2210282;81;21100;-64
2021/11/02 16:43:05;;;;;;;46.28;23.95;;;;;;;8.15;81.71;97545.95;2210171;81;21100;-64
2021/11/02 16:46:07;;;;;;;45.63;23.87;;;;;;;8.14;81.78;97540.36;2210221;81;20986;-64
2021/11/02 16:49:08;;;;;;;45.10;24.20;;;;;;;8.20;82.12;97539.91;2210252;81;21559;-65
2021/11/02 16:52:10;;;;;;;47.50;25.50;;;;;;;8.26;81.74;97544.72;2210644;81;20976;-64
2021/11/02 16:55:11;;;;;;;51.58;25.08;;;;;;;8.26;81.61;97553.86;2210198;81;21071;-64
2021/11/02 16:58:12;;;;;;;52.15;25.27;;;;;;;8.27;81.78;97549.46;2210476;81;21051;-64
2021/11/02 17:01:14;;;;;;;45.83;23.52;;;;;;;8.31;81.68;97556.14;2210268;81;21025;-64
2021/11/02 17:04:16;;;;;;;46.25;24.00;;;;;;;8.27;81.60;97554.69;2210380;81;21025;-64
2021/11/02 17:07:17;;;;;;;45.83;24.18;;;;;;;8.25;81.79;97554.80;2210201;81;21079;-64
2021/11/02 17:10:19;;;;;;;48.15;25.50;;;;;;;8.22;81.61;97562.03;2210179;81;21518;-64
2021/11/02 17:13:22;;;;;;;48.67;25.33;;;;;;;8.28;81.80;97552.45;2210166;81;21431;-64
2021/11/02 17:16:27;;;;;;;47.00;24.47;;;;;;;8.24;81.75;97551.81;2209952;81;21076;-64
2021/11/02 17:19:36;;;;;;;45.73;23.85;;;;;;;8.28;81.78;97551.14;2210154;81;21049;-65
2021/11/02 17:22:32;;;;;;;45.55;24.23;;;;;;;8.27;81.65;97553.38;2188806;81;20969;-65
2021/11/02 17:25:34;;;;;;;44.53;23.83;;;;;;;8.30;81.89;97559.69;2210314;81;21000;-64
2021/11/02 17:28:36;;;;;;;45.45;24.15;;;;;;;8.37;81.92;97550.46;2210551;81;21051;-64
2021/11/02 17:31:38;;;;;;;46.73;23.57;;;;;;;8.54;81.64;97551.06;2210105;81;20972;-64
2021/11/02 17:34:40;;;;;;;62.95;24.72;;;;;;;8.54;81.45;97562.34;2217016;80;21016;-64
2021/11/02 17:37:41;;;;;;;46.33;24.67;;;;;;;8.54;81.75;97559.73;2220708;80;21052;-64
2021/11/02 17:40:42;;;;;;;45.30;23.00;;;;;;;8.61;81.28;97555.72;2220133;80;20984;-64
2021/11/02 17:43:45;;;;;;;45.05;24.85;;;;;;;8.63;81.30;97559.52;2220489;80;21575;-64
2021/11/02 17:46:46;;;;;;;44.95;25.25;;;;;;;8.58;81.25;97559.05;2220566;80;21055;-64
2021/11/02 17:49:49;;;;;;;51.75;25.90;;;;;;;8.62;81.03;97561.77;2220983;80;21571;-64
2021/11/02 17:52:50;;;;;;;;;;;;;;;8.62;81.14;97567.84;2223169;80;21387;-64
2021/11/02 17:55:52;;;;;;;55.60;27.58;;;;;;;8.59;81.08;97560.69;2220583;80;20156;-64
2021/11/02 17:58:58;;;;;;;51.28;26.17;;;;;;;8.54;81.31;97567.56;2220464;80;21563;-64
2021/11/02 18:01:57;;;;;;;49.60;25.45;;;;;;;8.60;81.12;97568.91;2190324;80;20984;-64
2021/11/02 18:04:59;;;;;;;46.63;25.68;;;;;;;8.51;81.06;97564.36;2220605;80;20996;-64
2021/11/02 18:08:00;;;;;;;47.00;25.70;;;;;;;8.47;81.26;97567.17;2220671;80;21151;-64
2021/11/02 18:11:02;;;;;;;45.65;25.02;;;;;;;8.47;81.45;97565.04;2220588;80;21079;-64
2021/11/02 18:14:03;;;;;;;51.68;25.90;;;;;;;8.43;81.12;97559.19;2220593;80;21566;-64
2021/11/02 18:17:05;;;;;;;51.37;26.37;;;;;;;8.39;81.35;97560.80;2220569;80;21049;-64
2021/11/02 18:20:07;;;;;;;50.50;26.30;;;;;;;8.33;81.50;97561.63;2220270;80;21550;-64
2021/11/02 18:23:09;;;;;;;48.20;24.90;;;;;;;8.32;81.54;97554.72;2220605;80;21040;-64
2021/11/02 18:26:10;;;;;;;50.83;25.80;;;;;;;8.39;81.63;97549.05;2220646;80;21749;-64
2021/11/02 18:29:13;;;;;;;;;;;;;;;8.41;81.57;97555.01;2222941;80;21073;-64
2021/11/02 18:32:14;;;;;;;51.77;25.08;;;;;;;8.37;81.43;97557.48;2220461;80;20419;-64
2021/11/02 18:35:16;;;;;;;49.63;25.10;;;;;;;8.40;81.79;97559.86;2220160;80;21084;-64
2021/11/02 18:38:17;;;;;;;47.40;23.55;;;;;;;8.45;81.70;97558.62;2220712;80;21546;-63
2021/11/02 18:41:22;;;;;;;44.95;23.32;;;;;;;8.56;81.60;97566.15;2220714;80;21012;-64
2021/11/02 18:44:22;;;;;;;45.90;24.12;;;;;;;8.60;81.55;97562.37;2190312;80;20984;-64
2021/11/02 18:47:23;;;;;;;47.62;25.00;;;;;;;8.66;81.29;97565.83;2220492;80;21527;-64
2021/11/02 18:50:25;;;;;;;46.68;23.83;;;;;;;8.66;81.17;97571.06;2220807;80;21058;-64
2021/11/02 18:53:27;;;;;;;49.83;26.20;;;;;;;8.64;81.23;97567.73;2220604;80;21530;-64
2021/11/02 18:56:29;;;;;;;51.23;27.07;;;;;;;8.63;81.30;97568.22;2220697;80;21028;-64
2021/11/02 18:59:30;;;;;;;48.45;25.32;;;;;;;8.66;81.09;97571.91;2220745;80;21028;-64
2021/11/02 19:02:32;;;;;;;51.42;26.12;;;;;;;8.63;81.23;97577.37;2220849;80;21083;-64
2021/11/02 19:05:35;;;;;;;53.02;27.65;;;;;;;8.72;81.15;97574.55;2220717;80;21076;-64